createdAt,value
2019-02-02T00:02:28.265Z,68.57
2019-02-02T00:04:59.014Z,65.03
2019-02-02T00:07:29.566Z,76.40
2019-02-02T00:10:00.347Z,71.07
2019-02-02T00:12:31.021Z,78.10
2019-02-02T00:15:01.985Z,71.67
2019-02-02T00:17:32.857Z,66.03
2019-02-02T00:20:03.530Z,67.57
2019-02-02T00:22:34.268Z,62.30
2019-02-02T00:25:05.021Z,63.70
2019-02-02T00:27:41.647Z,66.43
2019-02-02T00:30:09.610Z,65.70
2019-02-02T00:32:40.624Z,58.93
2019-02-02T00:35:11.141Z,71.63
2019-02-02T00:37:41.526Z,70.23
2019-02-02T00:40:12.083Z,60.87
2019-02-02T00:42:42.654Z,58.67
2019-02-02T00:45:13.322Z,58.77
2019-02-02T00:47:43.845Z,60.27
2019-02-02T00:50:14.541Z,57.90
2019-02-02T00:52:44.835Z,56.83
2019-02-02T00:55:15.444Z,55.53
2019-02-02T00:57:53.545Z,56.23
2019-02-02T01:00:20.116Z,51.57
2019-02-02T01:02:50.630Z,51.80
2019-02-02T01:05:21.170Z,44.50
2019-02-02T01:07:51.733Z,52.27
2019-02-02T01:10:25.101Z,50.33
2019-02-02T01:12:55.625Z,40.23
2019-02-02T01:15:26.034Z,47.97
2019-02-02T01:17:56.623Z,41.10
2019-02-02T01:20:26.973Z,45.50
2019-02-02T01:22:57.432Z,45.53
2019-02-02T01:25:28.285Z,43.00
2019-02-02T01:28:05.422Z,45.53
2019-02-02T01:30:31.203Z,40.13
2019-02-02T01:33:01.804Z,43.60
2019-02-02T01:35:32.551Z,40.77
2019-02-02T01:38:03.476Z,40.77
2019-02-02T01:40:36.145Z,43.40
2019-02-02T01:43:06.821Z,38.63
2019-02-02T01:45:37.481Z,40.70
2019-02-02T01:48:08.137Z,38.67
2019-02-02T01:50:39.195Z,36.03
2019-02-02T01:53:09.787Z,36.60
2019-02-02T01:55:40.821Z,41.67
2019-02-02T01:58:16.789Z,40.10
2019-02-02T02:00:43.713Z,49.30
2019-02-02T02:03:14.451Z,42.83
2019-02-02T02:05:45.256Z,42.10
2019-02-02T02:08:15.777Z,39.00
2019-02-02T02:10:46.448Z,43.07
2019-02-02T02:13:17.243Z,40.83
2019-02-02T02:15:47.881Z,43.07
2019-02-02T02:18:18.487Z,39.07
2019-02-02T02:20:49.004Z,44.03
2019-02-02T02:23:19.652Z,45.63
2019-02-02T02:25:50.181Z,49.80
2019-02-02T02:28:27.846Z,54.50
2019-02-02T02:30:52.810Z,53.00
2019-02-02T02:33:23.476Z,54.43
2019-02-02T02:35:53.919Z,40.70
2019-02-02T02:38:24.492Z,49.27
2019-02-02T02:40:55.369Z,49.63
2019-02-02T02:43:26.179Z,42.73
2019-02-02T02:45:56.843Z,35.40
2019-02-02T02:48:27.778Z,43.03
2019-02-02T02:50:58.186Z,45.17
2019-02-02T02:53:28.781Z,24.23
2019-02-02T02:55:59.505Z,18.57
2019-02-02T02:58:40.834Z,22.07
2019-02-02T03:01:02.369Z,20.83
2019-02-02T03:03:32.943Z,18.90
2019-02-02T03:06:03.617Z,26.40
2019-02-02T03:08:34.335Z,24.33
2019-02-02T03:11:04.660Z,45.27
2019-02-02T03:13:35.337Z,48.07
2019-02-02T03:16:05.837Z,42.33
2019-02-02T03:18:36.778Z,38.50
2019-02-02T03:21:07.397Z,32.30
2019-02-02T03:23:38.012Z,43.53
2019-02-02T03:26:08.623Z,33.77
2019-02-02T03:28:39.537Z,34.83
2019-02-02T03:31:09.808Z,32.60
2019-02-02T03:33:40.298Z,29.33
2019-02-02T03:36:10.653Z,32.10
2019-02-02T03:38:40.933Z,24.63
2019-02-02T03:41:12.053Z,20.20
2019-02-02T03:43:42.736Z,19.73
2019-02-02T03:46:14.819Z,18.13
2019-02-02T03:48:45.576Z,13.30
2019-02-02T03:51:15.860Z,11.40
2019-02-02T03:53:46.272Z,13.80
2019-02-02T03:56:17.615Z,14.60
2019-02-02T03:58:48.619Z,9.97
2019-02-02T04:01:19.239Z,14.73
2019-02-02T04:03:49.692Z,10.33
2019-02-02T04:06:20.205Z,9.63
2019-02-02T04:08:51.084Z,9.00
2019-02-02T04:11:21.561Z,10.60
2019-02-02T04:13:52.984Z,14.33
2019-02-02T04:16:23.257Z,10.57
2019-02-02T04:18:54.508Z,8.13
2019-02-02T04:21:24.792Z,13.60
2019-02-02T04:23:55.341Z,7.77
2019-02-02T04:26:25.894Z,7.80
2019-02-02T04:28:56.327Z,9.87
2019-02-02T04:31:27.047Z,11.80
2019-02-02T04:33:57.592Z,13.90
2019-02-02T04:36:28.234Z,10.90
2019-02-02T04:38:58.981Z,11.07
2019-02-02T04:41:29.688Z,9.50
2019-02-02T04:44:00.324Z,11.37
2019-02-02T04:46:31.721Z,9.10
2019-02-02T04:49:02.456Z,12.50
2019-02-02T04:51:33.266Z,12.50
2019-02-02T04:54:03.669Z,7.80
2019-02-02T04:56:34.711Z,8.43
2019-02-02T04:59:05.957Z,12.20
2019-02-02T05:01:36.470Z,10.67
2019-02-02T05:04:07.119Z,8.40
2019-02-02T05:06:37.617Z,8.23
2019-02-02T05:09:08.756Z,8.83
2019-02-02T05:11:39.594Z,9.03
2019-02-02T05:14:10.245Z,8.93
2019-02-02T05:16:40.913Z,8.30
2019-02-02T05:19:11.602Z,10.03
2019-02-02T05:21:42.389Z,9.60
2019-02-02T05:24:12.810Z,8.43
2019-02-02T05:26:43.467Z,11.97
2019-02-02T05:29:14.620Z,7.77
2019-02-02T05:31:45.099Z,10.30
2019-02-02T05:34:16.486Z,11.30
2019-02-02T05:36:47.183Z,9.80
2019-02-02T05:39:17.483Z,8.53
2019-02-02T05:41:48.131Z,9.37
2019-02-02T05:44:21.482Z,15.57
2019-02-02T05:46:52.020Z,11.20
2019-02-02T05:49:22.491Z,9.23
2019-02-02T05:51:53.096Z,10.97
2019-02-02T05:54:23.834Z,11.57
2019-02-02T05:56:54.303Z,8.67
2019-02-02T05:59:24.874Z,15.23
2019-02-02T06:01:55.320Z,8.43
2019-02-02T06:04:25.645Z,12.27
2019-02-02T06:06:56.301Z,10.77
2019-02-02T06:09:29.350Z,11.87
2019-02-02T06:11:59.754Z,11.93
2019-02-02T06:14:30.185Z,12.83
2019-02-02T06:17:00.772Z,11.90
2019-02-02T06:19:31.450Z,13.97
2019-02-02T06:22:02.024Z,15.10
2019-02-02T06:24:33.207Z,14.37
2019-02-02T06:27:03.697Z,13.63
2019-02-02T06:29:34.273Z,14.13
2019-02-02T06:32:11.833Z,12.20
2019-02-02T06:34:37.494Z,15.27
2019-02-02T06:37:09.548Z,11.03
2019-02-02T06:39:39.998Z,11.00
2019-02-02T06:42:10.651Z,8.70
2019-02-02T06:44:41.234Z,12.00
2019-02-02T06:47:12.325Z,19.80
2019-02-02T06:49:42.717Z,10.33
2019-02-02T06:52:13.192Z,14.40
2019-02-02T06:54:43.597Z,10.77
2019-02-02T06:57:13.933Z,10.53
2019-02-02T06:59:44.443Z,12.73
2019-02-02T07:02:15.087Z,10.47
2019-02-02T07:04:45.607Z,10.63
2019-02-02T07:07:16.823Z,11.60
2019-02-02T07:09:47.796Z,11.80
2019-02-02T07:12:18.612Z,14.30
2019-02-02T07:14:49.268Z,10.30
2019-02-02T07:17:20.110Z,13.53
2019-02-02T07:19:50.645Z,12.23
2019-02-02T07:22:21.100Z,12.73
2019-02-02T07:24:51.604Z,12.90
2019-02-02T07:27:21.899Z,11.57
2019-02-02T07:29:52.484Z,16.10
2019-02-02T07:32:22.921Z,15.80
2019-02-02T07:34:53.487Z,16.00
2019-02-02T07:37:24.587Z,13.73
2019-02-02T07:39:55.228Z,14.83
2019-02-02T07:42:28.117Z,12.87
2019-02-02T07:45:00.656Z,12.33
2019-02-02T07:47:31.381Z,11.90
2019-02-02T07:50:27.615Z,16.00
2019-02-02T07:52:58.468Z,13.10
2019-02-02T07:55:29.222Z,13.23
2019-02-02T07:58:00.480Z,16.33
2019-02-02T08:00:40.820Z,14.67
2019-02-02T08:03:12.336Z,13.17
2019-02-02T08:05:43.048Z,17.93
2019-02-02T08:08:13.790Z,14.40
2019-02-02T08:10:48.352Z,9.40
2019-02-02T08:13:18.827Z,13.20
2019-02-02T08:15:49.166Z,14.10
2019-02-02T08:18:19.887Z,15.00
2019-02-02T08:20:50.570Z,12.43
2019-02-02T08:23:21.028Z,11.90
2019-02-02T08:25:51.740Z,12.40
2019-02-02T08:28:22.142Z,14.87
2019-02-02T08:30:52.934Z,11.97
2019-02-02T08:33:23.379Z,9.77
2019-02-02T08:35:54.492Z,10.00
2019-02-02T08:38:24.876Z,14.77
2019-02-02T08:40:55.371Z,12.57
2019-02-02T08:43:25.863Z,14.97
2019-02-02T08:45:56.776Z,13.70
2019-02-02T08:48:27.508Z,12.53
2019-02-02T08:50:58.124Z,12.97
2019-02-02T08:53:28.786Z,14.60
2019-02-02T08:55:59.326Z,15.33
2019-02-02T08:58:29.906Z,19.87
2019-02-02T09:01:04.225Z,17.57
2019-02-02T09:03:32.466Z,21.10
2019-02-02T09:06:03.819Z,15.97
2019-02-02T09:08:34.344Z,15.13
2019-02-02T09:11:04.823Z,17.50
2019-02-02T09:13:36.819Z,15.03
2019-02-02T09:16:07.676Z,20.23
2019-02-02T09:18:38.211Z,18.50
2019-02-02T09:21:08.894Z,20.83
2019-02-02T09:23:39.632Z,22.53
2019-02-02T09:26:10.042Z,21.97
2019-02-02T09:28:40.745Z,20.83
2019-02-02T09:31:15.926Z,23.43
2019-02-02T09:33:45.670Z,19.90
2019-02-02T09:36:20.031Z,24.27
2019-02-02T09:38:50.471Z,23.87
2019-02-02T09:41:21.214Z,20.93
2019-02-02T09:43:51.635Z,19.63
2019-02-02T09:46:22.036Z,21.33
2019-02-02T09:48:52.876Z,24.13
2019-02-02T09:51:23.978Z,19.80
2019-02-02T09:53:56.283Z,20.70
2019-02-02T09:56:26.572Z,17.07
2019-02-02T09:58:59.183Z,18.90
2019-02-02T10:01:29.776Z,18.03
2019-02-02T10:04:00.480Z,18.47
2019-02-02T10:06:30.849Z,21.43
2019-02-02T10:09:01.252Z,18.43
2019-02-02T10:11:33.641Z,18.23
2019-02-02T10:14:04.233Z,18.93
2019-02-02T10:16:34.575Z,18.53
2019-02-02T10:19:04.978Z,13.50
2019-02-02T10:21:35.516Z,17.13
2019-02-02T10:24:06.063Z,15.03
2019-02-02T10:26:36.490Z,16.50
2019-02-02T10:29:06.815Z,17.53
2019-02-02T10:31:39.814Z,14.13
2019-02-02T10:34:12.350Z,14.33
2019-02-02T10:36:42.295Z,18.07
2019-02-02T10:39:12.737Z,16.10
2019-02-02T10:41:43.067Z,16.53
2019-02-02T10:44:13.441Z,16.27
2019-02-02T10:46:44.021Z,14.77
2019-02-02T10:49:14.292Z,14.53
2019-02-02T10:51:44.655Z,16.50
2019-02-02T10:54:14.998Z,14.87
2019-02-02T10:56:45.437Z,16.67
2019-02-02T10:59:15.727Z,16.23
2019-02-02T11:01:51.145Z,24.77
2019-02-02T11:04:18.360Z,19.10
2019-02-02T11:06:49.006Z,19.37
2019-02-02T11:09:19.527Z,15.90
2019-02-02T11:11:50.778Z,15.60
2019-02-02T11:30:36.053Z,18.40
2019-02-02T11:33:06.587Z,20.00
2019-02-02T11:35:36.814Z,22.53
2019-02-02T11:38:07.183Z,24.67
2019-02-02T11:40:37.840Z,24.53
2019-02-02T11:43:08.375Z,30.60
2019-02-02T11:45:38.787Z,22.30
2019-02-02T11:48:09.301Z,13.83
2019-02-02T11:50:39.689Z,15.07
2019-02-02T11:53:10.380Z,17.30
2019-02-02T11:55:40.656Z,17.83
2019-02-02T11:58:11.083Z,15.80
2019-02-02T12:00:42.840Z,17.97
2019-02-02T12:03:13.527Z,14.87
2019-02-02T12:05:45.883Z,15.13
2019-02-02T12:08:16.508Z,16.33
2019-02-02T12:10:46.733Z,23.97
2019-02-02T12:13:17.389Z,19.17
2019-02-02T12:15:47.866Z,25.43
2019-02-02T12:18:18.160Z,22.87
2019-02-02T12:20:49.814Z,23.53
2019-02-02T12:23:20.515Z,25.13
2019-02-02T12:25:54.454Z,21.30
2019-02-02T12:28:24.923Z,15.47
2019-02-02T12:30:55.378Z,15.97
2019-02-02T12:33:26.097Z,18.03
2019-02-02T12:35:56.551Z,10.63
2019-02-02T12:38:26.920Z,11.57
2019-02-02T12:40:59.672Z,8.07
2019-02-02T12:43:29.410Z,8.50
2019-02-02T12:45:59.986Z,10.17
2019-02-02T12:48:32.485Z,14.67
2019-02-02T12:51:02.896Z,19.40
2019-02-02T12:53:33.347Z,14.73
2019-02-02T12:56:04.085Z,18.57
2019-02-02T12:58:35.471Z,20.30
2019-02-02T13:01:06.408Z,16.23
2019-02-02T13:03:36.956Z,17.23
2019-02-02T13:06:07.473Z,20.53
2019-02-02T13:08:38.151Z,22.17
2019-02-02T13:11:08.799Z,33.73
2019-02-02T13:13:42.711Z,26.13
2019-02-02T13:16:13.406Z,26.73
2019-02-02T13:18:43.825Z,21.00
2019-02-02T13:21:15.437Z,21.17
2019-02-02T13:23:45.837Z,23.93
2019-02-02T13:26:16.270Z,24.37
2019-02-02T13:28:46.689Z,23.33
2019-02-02T13:31:20.787Z,26.40
2019-02-02T13:33:49.311Z,24.80
2019-02-02T13:36:20.528Z,18.57
2019-02-02T13:38:50.937Z,24.20
2019-02-02T13:41:21.395Z,21.67
2019-02-02T13:43:51.839Z,25.03
2019-02-02T13:46:22.269Z,18.00
2019-02-02T13:48:52.691Z,22.73
2019-02-02T13:51:23.069Z,29.97
2019-02-02T13:53:53.541Z,31.13
2019-02-02T13:56:23.877Z,30.17
2019-02-02T13:58:54.275Z,25.97
2019-02-02T14:01:24.611Z,31.03
2019-02-02T14:03:55.027Z,31.53
2019-02-02T14:06:25.347Z,31.40
2019-02-02T14:08:55.932Z,22.00
2019-02-02T14:11:26.276Z,21.40
2019-02-02T14:13:56.722Z,22.57
2019-02-02T14:16:27.263Z,24.40
2019-02-02T14:18:57.691Z,30.83
2019-02-02T14:21:28.053Z,26.13
2019-02-02T14:23:58.581Z,30.27
2019-02-02T14:26:29.001Z,25.53
2019-02-02T14:28:59.425Z,22.13
2019-02-02T14:31:29.811Z,27.83
2019-02-02T14:34:00.298Z,29.70
2019-02-02T14:36:30.827Z,31.63
2019-02-02T14:39:01.269Z,22.97
2019-02-02T14:41:34.551Z,21.60
2019-02-02T14:44:04.889Z,22.30
2019-02-02T14:46:35.346Z,24.07
2019-02-02T14:49:05.955Z,18.83
2019-02-02T14:51:36.249Z,21.67
2019-02-02T14:54:06.544Z,20.33
2019-02-02T14:56:37.623Z,23.30
2019-02-02T14:59:08.067Z,41.13
2019-02-02T15:04:25.409Z,19.50
2019-02-02T15:06:56.384Z,26.40
2019-02-02T15:09:28.067Z,21.97
2019-02-02T15:11:58.661Z,18.27
2019-02-02T15:14:30.103Z,15.80
2019-02-02T15:17:00.492Z,18.30
2019-02-02T15:19:31.243Z,17.60
2019-02-02T15:22:01.969Z,19.33
2019-02-02T15:24:32.251Z,18.57
2019-02-02T15:27:02.727Z,19.50
2019-02-02T15:29:33.030Z,21.93
2019-02-02T15:32:04.059Z,21.37
2019-02-02T15:34:34.704Z,22.13
2019-02-02T15:37:05.061Z,22.83
2019-02-02T15:39:36.139Z,21.40
2019-02-02T15:42:06.615Z,22.30
2019-02-02T15:44:36.973Z,25.73
2019-02-02T15:47:07.388Z,21.43
2019-02-02T15:49:38.195Z,19.80
2019-02-02T15:52:08.694Z,22.07
2019-02-02T16:06:20.707Z,21.13
2019-02-02T16:08:51.151Z,25.23
2019-02-02T16:11:22.049Z,18.83
2019-02-02T16:13:52.647Z,20.43
2019-02-02T16:16:23.079Z,20.00
2019-02-02T16:18:54.183Z,18.73
2019-02-02T16:21:24.564Z,18.00
2019-02-02T16:23:55.223Z,18.93
2019-02-02T16:26:25.737Z,18.03
2019-02-02T16:28:56.135Z,18.73
2019-02-02T16:31:26.700Z,18.87
2019-02-02T16:34:02.191Z,19.33
2019-02-02T16:36:29.053Z,20.40
2019-02-02T16:38:59.339Z,19.37
2019-02-02T16:41:29.750Z,20.27
2019-02-02T16:44:00.105Z,18.07
2019-02-02T16:46:30.553Z,18.93
2019-02-02T16:49:01.004Z,21.23
2019-02-02T16:51:31.401Z,19.33
2019-02-02T16:54:02.059Z,15.10
2019-02-02T16:56:32.516Z,16.67
2019-02-02T16:59:04.016Z,24.67
2019-02-02T17:01:34.383Z,20.53
2019-02-02T17:04:15.329Z,20.43
2019-02-02T17:06:36.765Z,20.43
2019-02-02T17:09:08.986Z,22.00
2019-02-02T17:11:39.373Z,31.53
2019-02-02T17:14:09.699Z,31.03
2019-02-02T17:16:40.221Z,26.63
2019-02-02T17:19:10.662Z,27.63
2019-02-02T17:21:41.536Z,27.37
2019-02-02T17:24:13.055Z,26.90
2019-02-02T17:26:43.464Z,24.23
2019-02-02T17:29:14.817Z,30.10
2019-02-02T17:31:45.320Z,29.90
2019-02-02T17:34:26.612Z,46.03
2019-02-02T17:36:47.724Z,31.90
2019-02-02T17:39:18.527Z,28.87
2019-02-02T17:41:49.217Z,31.70
2019-02-02T17:44:19.722Z,27.30
2019-02-02T17:46:50.177Z,29.80
2019-02-02T17:49:21.174Z,33.13
2019-02-02T17:51:51.502Z,35.83
2019-02-02T17:54:22.245Z,35.67
2019-02-02T17:56:52.562Z,37.03
2019-02-02T17:59:23.125Z,40.27
2019-02-02T18:01:54.868Z,38.30
2019-02-02T18:04:26.585Z,42.30
2019-02-02T18:06:57.779Z,45.70
2019-02-02T18:09:28.235Z,30.37
2019-02-02T18:11:58.655Z,27.93
2019-02-02T18:14:29.329Z,27.60
2019-02-02T18:16:59.865Z,20.77
2019-02-02T18:19:30.583Z,23.23
2019-02-02T18:22:00.899Z,22.37
2019-02-02T18:24:31.322Z,24.23
2019-02-02T18:27:01.668Z,22.17
2019-02-02T18:29:32.648Z,25.37
2019-02-02T18:32:12.734Z,20.90
2019-02-02T18:34:35.407Z,21.87
2019-02-02T18:37:05.845Z,23.23
2019-02-02T18:39:36.236Z,22.20
2019-02-02T18:42:06.532Z,22.67
2019-02-02T18:44:37.093Z,23.27
2019-02-02T18:47:07.576Z,20.13
2019-02-02T18:49:39.175Z,23.90
2019-02-02T18:52:09.681Z,25.83
2019-02-02T18:54:40.011Z,28.13
2019-02-02T18:57:10.430Z,27.60
2019-02-02T18:59:41.123Z,30.20
2019-02-02T19:02:11.473Z,33.53
2019-02-02T19:04:41.975Z,31.60
2019-02-02T19:07:12.455Z,30.30
2019-02-02T19:09:42.789Z,33.33
2019-02-02T19:12:13.228Z,31.77
2019-02-02T19:14:43.906Z,39.40
2019-02-02T19:17:14.156Z,46.57
2019-02-02T19:19:44.499Z,43.67
2019-02-02T19:22:14.781Z,43.93
2019-02-02T19:24:45.099Z,39.63
2019-02-02T19:27:15.472Z,41.37
2019-02-02T19:29:45.916Z,45.07
2019-02-02T19:32:16.329Z,43.97
2019-02-02T19:34:46.852Z,41.70
2019-02-02T19:37:17.404Z,51.97
2019-02-02T19:39:48.162Z,62.20
2019-02-02T19:42:18.679Z,50.70
2019-02-02T19:44:48.983Z,48.30
2019-02-02T19:47:19.310Z,42.63
2019-02-02T19:49:49.734Z,47.87
2019-02-02T19:52:20.157Z,47.20
2019-02-02T19:54:50.917Z,49.93
2019-02-02T19:57:21.242Z,44.03
2019-02-02T19:59:51.743Z,49.87
2019-02-02T20:02:22.192Z,49.20
2019-02-02T20:04:52.748Z,48.77
2019-02-02T20:07:23.151Z,49.80
2019-02-02T20:09:53.496Z,47.80
2019-02-02T20:12:25.037Z,47.33
2019-02-02T20:14:55.593Z,42.07
2019-02-02T20:17:26.134Z,49.87
2019-02-02T20:19:56.421Z,48.67
2019-02-02T20:22:26.930Z,50.77
2019-02-02T20:24:57.511Z,43.33
2019-02-02T20:27:29.066Z,49.90
2019-02-02T20:30:01.719Z,42.50
2019-02-02T20:32:33.831Z,52.70
2019-02-02T20:35:04.431Z,57.77
2019-02-02T20:37:35.086Z,57.93
2019-02-02T20:40:06.855Z,53.13
2019-02-02T20:42:37.294Z,50.93
2019-02-02T20:45:10.143Z,57.13
2019-02-02T20:47:40.602Z,50.03
2019-02-02T20:50:13.769Z,47.37
2019-02-02T20:52:47.658Z,42.90
2019-02-02T20:55:18.932Z,47.33
2019-02-02T20:57:49.892Z,41.40
2019-02-02T21:00:22.415Z,47.97
2019-02-02T21:02:52.734Z,43.63
2019-02-02T21:05:23.033Z,46.23
2019-02-02T21:07:53.423Z,46.83
2019-02-02T21:10:25.894Z,41.53
2019-02-02T21:12:56.581Z,42.60
2019-02-02T21:15:27.098Z,42.97
2019-02-02T21:17:57.428Z,40.57
2019-02-02T21:20:29.036Z,40.33
2019-02-02T21:23:00.501Z,41.77
2019-02-02T21:25:31.066Z,44.50
2019-02-02T21:28:01.541Z,41.87
2019-02-02T21:30:33.987Z,43.37
2019-02-02T21:33:04.778Z,44.53
2019-02-02T21:35:35.170Z,38.17
2019-02-02T21:38:05.713Z,39.37
2019-02-02T21:40:36.488Z,35.30
2019-02-02T21:43:08.418Z,33.57
2019-02-02T21:45:39.043Z,43.17
2019-02-02T21:48:09.586Z,42.77
2019-02-02T21:50:39.922Z,40.27
2019-02-02T21:53:10.285Z,48.03
2019-02-02T21:55:40.577Z,44.40
2019-02-02T21:58:11.056Z,45.83
2019-02-02T22:00:42.782Z,48.10
2019-02-02T22:03:13.083Z,52.07
2019-02-02T22:05:43.439Z,56.50
2019-02-02T22:08:13.232Z,55.23
2019-02-02T22:10:43.874Z,64.83
2019-02-02T22:13:14.615Z,67.43
2019-02-02T22:15:44.880Z,81.00
2019-02-02T22:18:15.351Z,74.80
2019-02-02T22:20:46.007Z,78.70
2019-02-02T22:23:16.774Z,76.93
2019-02-02T22:25:47.201Z,88.77
2019-02-02T22:28:17.589Z,82.83
2019-02-02T22:30:47.991Z,80.17
2019-02-02T22:33:18.481Z,86.07
2019-02-02T22:35:49.051Z,96.77
2019-02-02T22:38:19.607Z,93.90
2019-02-02T22:40:49.922Z,88.67
2019-02-02T22:43:20.965Z,95.67
2019-02-02T22:45:51.854Z,94.63
2019-02-02T22:48:22.282Z,105.73
2019-02-02T22:50:52.658Z,99.77
2019-02-02T22:53:23.091Z,98.17
2019-02-02T22:55:53.338Z,105.60
2019-02-02T22:58:23.700Z,92.33
2019-02-02T23:01:30.366Z,90.57
2019-02-02T23:04:18.926Z,95.00
2019-02-02T23:07:25.506Z,74.77
2019-02-02T23:10:51.893Z,86.17
2019-02-02T23:13:35.559Z,89.73
2019-02-02T23:16:24.622Z,85.57
2019-02-02T23:18:55.505Z,84.87
2019-02-02T23:21:26.348Z,97.53
2019-02-02T23:23:57.113Z,96.57
2019-02-02T23:26:27.633Z,84.33
2019-02-02T23:28:57.958Z,82.93
2019-02-02T23:31:28.388Z,77.67
2019-02-02T23:33:58.831Z,88.87
2019-02-02T23:36:29.162Z,81.20
2019-02-02T23:39:00.613Z,62.93
2019-02-02T23:41:32.760Z,65.23
2019-02-02T23:44:04.335Z,73.23
2019-02-02T23:46:34.638Z,70.73
2019-02-02T23:49:05.064Z,73.87
2019-02-02T23:51:35.408Z,74.83
2019-02-02T23:54:05.653Z,70.30
2019-02-02T23:56:36.034Z,77.63
2019-02-02T23:59:06.494Z,73.57
